Latest Coastal Weather Observations for Cape Leeuwin

IDW60701

Issued at 10:23 pm WST Friday 3 July 2020 (issued every 10 minutes, with the page automatically refreshed every 10 minutes)

About coastal observations | Map of coastal stations | Coastal observations for WA | Marine services | Other Formats
Station Details ID: 009518 Name: CAPE LEEUWIN Lat: -34.37 Lon: 115.14 Height: 13.0 m
Data from the previous 72 hours. | See also: Recent months at Cape Leeuwin
Date/Time
WST
Wind Sea
Height
m
Swell Vis
km
Cloud Weather Temp
°C
Press
hPa
Rain since
9am
mm
Dir  Spd
kts
Gust
kts
Height
m
Period
s
Dir
03/10:00pm NE 22 26 - - - - - - - 13.6 1025.8 0.0
03/09:30pm ENE 15 19 - - - - - - - 13.6 1026.4 0.0
03/09:00pm ENE 13 15 - - - - - - - 14.4 1027.0 0.0
03/08:30pm ENE 13 17 - - - - - - - 15.0 1027.4 0.0
03/08:00pm ENE 16 20 - - - - - - - 15.6 1027.3 0.0
03/07:30pm ENE 15 19 - - - - - - - 15.7 1027.4 0.0
03/07:00pm ENE 13 15 - - - - - - - 15.8 1027.6 0.0
03/06:30pm NE 8 10 - - - - - - - 14.8 1027.6 0.0
03/06:00pm NE 8 10 - - - - - - - 14.8 1027.6 0.0
03/05:30pm NE 8 9 - - - - - - - 15.1 1027.4 0.0
03/05:00pm NE 7 9 - - - - - - - 15.4 1027.3 0.0
03/04:30pm NE 7 8 - - - - - - - 17.1 1027.2 0.0
03/04:00pm NE 5 7 - - - - - - - 17.9 1027.5 0.0
03/03:30pm NNE 7 10 - - - - - - - 18.3 1027.6 0.0
03/03:00pm NNE 6 11 - - - - - - - 18.6 1027.8 0.0
03/02:30pm NE 7 11 - - - - - - - 18.2 1027.9 0.0
03/02:00pm NE 7 13 - - - - - - - 18.9 1028.1 0.0
03/01:30pm NNE 8 13 - - - - - - - 18.5 1028.3 0.0
03/01:00pm NNE 7 10 - - - - - - - 17.7 1029.0 0.0
03/12:30pm NE 8 13 - - - - - - - 17.4 1029.5 0.0
03/12:00pm NNE 10 15 - - - - - - - 16.6 1029.9 0.0
03/11:30am NNE 11 15 - - - - - - - 15.9 1030.2 0.0
03/11:00am NE 11 16 - - - - - - - 14.8 1030.6 0.0
03/10:30am NE 12 16 - - - - - - - 13.5 1031.1 0.0
03/10:00am NE 10 14 - - - - - - - 13.1 1031.3 0.0
03/09:30am NE 9 13 - - - - - - - 12.4 1031.3 0.0
03/09:00am NE 12 16 - - - - - - - 11.3 1030.8 0.4
03/08:30am NE 11 16 - - - - - - - 10.4 1030.7 0.4
03/08:00am NE 9 12 - - - - - - - 10.3 1030.6 0.4
03/07:30am ENE 7 11 - - - - - - - 10.3 1030.6 0.4
03/07:00am NE 9 11 - - - - - - - 10.5 1030.5 0.4
03/06:30am NE 8 10 - - - - - - - 10.9 1030.3 0.4
03/06:00am NNE 8 10 - - - - - - - 11.1 1030.1 0.4
03/05:30am NNE 6 8 - - - - - - - 11.1 1029.8 0.4
03/05:00am NE 6 7 - - - - - - - 11.2 1029.5 0.4
03/04:30am NE 8 9 - - - - - - - 11.4 1029.5 0.4
03/04:00am NNE 10 13 - - - - - - - 11.5 1029.4 0.4
03/03:30am NNE 11 14 - - - - - - - 11.6 1029.5 0.4
03/03:00am NE 8 10 - - - - - - - 11.8 1029.6 0.4
03/02:30am NNE 9 11 - - - - - - - 11.7 1029.6 0.4
03/02:00am NNE 10 12 - - - - - - - 11.6 1029.5 0.4
03/01:30am NNE 9 11 - - - - - - - 11.6 1029.4 0.4
03/01:00am NNE 10 11 - - - - - - - 11.7 1029.3 0.4
03/12:30am NNE 10 11 - - - - - - - 12.0 1029.4 0.4
03/12:00am NNE 10 11 - - - - - - - 12.4 1029.5 0.4
 
Date/Time
WST
Wind Sea
Height
m
Swell Vis
km
Cloud Weather Temp
°C
Press
hPa
Rain since
9am
mm
Dir  Spd
kts
Gust
kts
Height
m
Period
s
Dir
02/11:30pm NNE 9 11 - - - - - - - 12.8 1029.6 0.4
02/11:00pm NNE 8 10 - - - - - - - 12.7 1029.8 0.4
02/10:30pm NNE 9 11 - - - - - - - 13.0 1029.7 0.4
02/10:00pm NNE 9 10 - - - - - - - 13.5 1029.5 0.4
02/09:30pm NNE 9 11 - - - - - - - 13.7 1029.6 0.4
02/09:00pm NNE 7 9 - - - - - - - 14.1 1029.3 0.4
02/08:30pm NE 5 8 - - - - - - - 14.6 1029.1 0.4
02/08:00pm ENE 5 7 - - - - - - - 15.1 1028.9 0.4
02/07:30pm E 5 7 - - - - - - - 15.1 1028.5 0.4
02/07:00pm ENE 5 6 - - - - - - - 15.1 1028.2 0.4
02/06:30pm ENE 6 7 - - - - - - - 15.0 1028.0 0.4
02/06:00pm ESE 8 10 - - - - - - - 15.1 1027.7 0.4
02/05:30pm SE 9 11 - - - - - - - 15.3 1027.5 0.4
02/05:00pm SSE 9 11 - - - - - - - 15.6 1027.2 0.4
02/04:30pm SSW 4 8 - - - - - - - 15.8 1027.0 0.4
02/04:00pm S 5 7 - - - - - - - 15.8 1026.9 0.4
02/03:30pm CALM 0 0 - - - - - - - 16.1 1026.7 0.4
02/03:00pm ESE 4 5 - - - - - - - 16.0 1026.3 0.4
02/02:30pm SW 5 7 - - - - - - - 17.3 1026.3 0.4
02/02:00pm WSW 5 7 - - - - - - - 16.9 1026.4 0.4
02/01:30pm S 6 7 - - - - - - - 15.7 1026.5 0.2
02/01:00pm S 4 6 - - - - - - - 16.4 1026.7 0.2
02/12:30pm SSW 4 5 - - - - - - - 15.9 1026.8 0.2
02/12:00pm SSE 1 3 - - - - - - - 15.1 1027.1 0.2
02/11:30am S 7 9 - - - - - - - 14.9 1027.5 0.2
02/11:00am SSW 10 13 - - - - - - - 15.1 1027.4 0.2
02/10:30am SW 4 6 - - - - - - - 15.7 1027.4 0.2
02/10:00am S 2 5 - - - - - - - 14.6 1027.4 0.2
02/09:30am SW 8 11 - - - - - - - 14.5 1027.2 0.0
02/09:00am W 11 13 - - - - - - - 14.5 1026.9 -
02/08:30am SW 7 11 - - - - - - - 13.5 1026.7 -
02/08:00am WSW 6 9 - - - - - - - 13.4 1026.3 -
02/07:30am WSW 9 13 - - - - - - - 13.3 1026.1 -
02/07:00am SSW 10 13 - - - - - - - 13.4 1025.8 -
02/06:30am SW 13 16 - - - - - - - 13.2 1025.4 -
02/06:00am SSW 12 16 - - - - - - - 13.2 1025.2 -
02/05:30am SW 7 9 - - - - - - - 13.0 1024.8 -
02/05:00am SW 12 15 - - - - - - - 13.2 1024.7 -
02/04:30am SW 11 17 - - - - - - - 12.8 1024.7 -
02/04:00am WSW 8 13 - - - - - - - 13.6 1024.6 -
02/03:30am SW 15 17 - - - - - - - 12.8 1024.9 -
02/03:00am SW 11 14 - - - - - - - 13.4 1024.6 -
02/02:30am SSW 12 15 - - - - - - - 13.3 1024.6 -
02/02:00am W 10 16 - - - - - - - 13.5 1024.4 -
02/01:30am SW 10 13 - - - - - - - 13.0 1024.4 -
02/01:00am S 6 11 - - - - - - - 12.4 1024.3 -
02/12:30am SW 6 8 - - - - - - - 12.8 1024.4 -
02/12:00am SW 11 13 - - - - - - - 12.9 1024.5 -
 
Date/Time
WST
Wind Sea
Height
m
Swell Vis
km
Cloud Weather Temp
°C
Press
hPa
Rain since
9am
mm
Dir  Spd
kts
Gust
kts
Height
m
Period
s
Dir
01/11:30pm SW 10 14 - - - - - - - 12.8 1024.5 1.4
01/11:00pm SW 14 17 - - - - - - - 13.1 1024.6 1.4
01/10:30pm WSW 5 8 - - - - - - - 12.4 1024.7 1.4
01/10:00pm WSW 17 22 - - - - - - - 12.7 1024.7 1.4
01/09:30pm SW 14 18 - - - - - - - 12.8 1024.4 1.4
01/09:00pm WSW 11 16 - - - - - - Recent precip. 12.9 1024.2 1.4
01/08:30pm W 4 6 - - - - - - - 12.2 1024.3 1.2
01/08:00pm SW 13 20 - - - - - - - 12.2 1024.3 1.2
01/07:30pm SW 16 22 - - - - - - - 12.7 1024.0 1.2
01/07:00pm SSW 10 15 - - - - - - - 12.8 1023.6 1.2
01/06:30pm WSW 17 22 - - - - - - - 12.6 1023.4 0.6
01/06:00pm SW 15 20 - - - - - - - 13.2 1023.1 0.4
01/05:30pm SSW 11 15 - - - - - - - 13.5 1022.8 0.4
01/05:00pm WSW 11 16 - - - - - - - 13.4 1022.7 0.4
01/04:30pm SSW 14 19 - - - - - - - 13.7 1022.4 0.4
01/04:00pm SW 18 23 - - - - - - - 13.8 1022.2 0.4
01/03:30pm SW 13 19 - - - - - - - 14.3 1021.9 0.4
01/03:00pm WSW 17 20 - - - - - - - 14.4 1021.7 0.4
01/02:30pm SSW 14 19 - - - - - - - 14.0 1021.6 0.4
01/02:00pm SW 16 19 - - - - - - - 14.6 1021.3 0.4
01/01:30pm SW 15 21 - - - - - - - 14.3 1021.3 0.4
01/01:00pm SW 14 18 - - - - - - - 14.2 1021.2 0.4
01/12:30pm SW 13 19 - - - - - - - 13.4 1021.3 0.4
01/12:09pm SW 15 25 - - - - - - - 13.4 1021.6 0.4
01/12:00pm SW 15 19 - - - - - - Recent precip. 13.6 1021.6 0.4
01/11:30am SW 17 22 - - - - - - - 14.3 1021.8 0.0
01/11:00am SW 17 21 - - - - - - - 14.5 1021.8 0.0
01/10:30am SSW 20 28 - - - - - - - 13.9 1021.9 0.0
01/10:10am SSW 18 28 - - - - - - - 13.4 1021.8 0.0
01/10:00am SW 23 29 - - - - - - - 13.6 1021.5 0.0
01/09:30am SW 19 24 - - - - - - - 13.4 1021.1 0.0
01/09:05am SW 24 34 - - - - - - - 12.4 1021.2 0.0
01/09:00am SW 27 35 - - - - - - - 12.7 1021.0 2.0
01/08:52am SW 20 30 - - - - - - - 14.0 1020.6 2.0
01/08:30am SW 19 25 - - - - - - - 13.4 1020.3 2.0
01/08:00am SW 19 26 - - - - - - - 13.0 1020.2 2.0
01/07:45am SW 21 34 - - - - - - - 14.3 1019.6 1.8
01/07:30am SW 24 30 - - - - - - - 13.9 1019.2 1.8
01/07:09am SW 21 31 - - - - - - - 13.9 1019.0 1.8
01/07:00am WSW 21 26 - - - - - - - 14.3 1019.0 1.8
01/06:30am WSW 23 32 - - - - - - - 13.9 1018.6 1.8
01/06:00am WSW 18 23 - - - - - - - 14.1 1018.3 1.8
01/05:30am SW 21 26 - - - - - - - 13.9 1018.1 1.8
01/05:00am WSW 21 26 - - - - - - - 14.0 1017.8 1.8
01/04:30am SW 21 27 - - - - - - - 13.7 1017.5 1.8
01/04:00am WSW 24 29 - - - - - - - 14.0 1017.3 1.8
01/03:30am SW 21 27 - - - - - - - 13.7 1017.2 1.8
01/03:00am WSW 24 28 - - - - - - - 14.0 1016.8 1.8
01/02:30am SW 23 30 - - - - - - - 14.0 1016.7 1.8
01/02:00am WSW 25 31 - - - - - - - 13.9 1016.4 1.8
01/01:30am WSW 28 37 - - - - - - - 13.1 1016.4 1.8
01/01:23am WSW 24 34 - - - - - - - 14.1 1016.1 1.8
01/01:00am WSW 28 36 - - - - - - - 13.4 1016.3 1.8
01/12:30am WSW 26 31 - - - - - - - 14.0 1016.2 1.8
01/12:00am WSW 26 31 - - - - - - - 14.0 1016.1 1.8
 
Date/Time
WST
Wind Sea
Height
m
Swell Vis
km
Cloud Weather Temp
°C
Press
hPa
Rain since
9am
mm
Dir  Spd
kts
Gust
kts
Height
m
Period
s
Dir
30/11:30pm WSW 23 28 - - - - - - - 14.0 1015.8 1.8
30/11:00pm WSW 29 35 - - - - - - - 13.7 1016.0 1.8
30/10:30pm WSW 25 32 - - - - - - - 14.0 1015.8 1.8

Other formats

Comma delimited format used in spreadsheet applications
http://www.bom.gov.au/fwo/IDW60701/IDW60701.94601.axf

JavaScript Object Notation format (JSON) in row-major order
http://www.bom.gov.au/fwo/IDW60701/IDW60701.94601.json

Data quality

Most of these data are generated automatically and are frequently updated. Quality checks on data are not normally performed. It is possible for incorrect values to appear. Refer to information at About Latest Weather Observations and please check the disclaimer before using these data.